Aviation Digital Data Service (ADDS)

Output produced by METARs form (0806 UTC 18 February 2019)
found at http://www.aviationweather.gov/metar/data/
 
METAR text: EHGR 180755Z AUTO 15002KT 9999 NCD 02/M01 Q1018 BLU 18005KT CAVOK
Conditions at: EHGR (GILZE-RIJEN RNLA, NL) observed 0755 UTC 18 February 2019
Temperature: 2.0°C (36°F)
Dewpoint: -1.0°C (30°F) [RH = 80%]
Pressure (altimeter): 30.06 inches Hg (1018.0 mb)
Winds: from the SSE (150 degrees) at 2 MPH (2 knots; 1.0 m/s)
Visibility: 6 or more miles (10+ km)
Ceiling: at least 12,000 feet AGL
Clouds: sky clear below 12,000 feet AGL
Weather: no significant weather observed at this time

METAR text: EHGR 180725Z AUTO 17003KT 9999 NCD 00/M02 Q1018 BLU 18005KT CAVOK
Conditions at: EHGR (GILZE-RIJEN RNLA, NL) observed 0725 UTC 18 February 2019
Temperature: 0.0°C (32°F)
Dewpoint: -2.0°C (28°F) [RH = 86%]
Pressure (altimeter): 30.06 inches Hg (1018.0 mb)
Winds: from the S (170 degrees) at 3 MPH (3 knots; 1.5 m/s)
Visibility: 6 or more miles (10+ km)
Ceiling: at least 12,000 feet AGL
Clouds: sky clear below 12,000 feet AGL
Weather: no significant weather observed at this time

METAR text: EHGR 180655Z AUTO 17002KT 9999 NCD 01/M01 Q1018 BLU
Conditions at: EHGR (GILZE-RIJEN RNLA, NL) observed 0655 UTC 18 February 2019
Temperature: 1.0°C (34°F)
Dewpoint: -1.0°C (30°F) [RH = 86%]
Pressure (altimeter): 30.06 inches Hg (1018.0 mb)
Winds: from the S (170 degrees) at 2 MPH (2 knots; 1.0 m/s)
Visibility: 6 or more miles (10+ km)
Ceiling: at least 12,000 feet AGL
Clouds: sky clear below 12,000 feet AGL
Weather: no significant weather observed at this time

METAR text: EHGR 180625Z AUTO 16003KT 9999 NCD 01/M02 Q1018 BLU
Conditions at: EHGR (GILZE-RIJEN RNLA, NL) observed 0625 UTC 18 February 2019
Temperature: 1.0°C (34°F)
Dewpoint: -2.0°C (28°F) [RH = 80%]
Pressure (altimeter): 30.06 inches Hg (1018.0 mb)
Winds: from the SSE (160 degrees) at 3 MPH (3 knots; 1.5 m/s)
Visibility: 6 or more miles (10+ km)
Ceiling: at least 12,000 feet AGL
Clouds: sky clear below 12,000 feet AGL
Weather: no significant weather observed at this time

METAR text: EHGR 180555Z AUTO 17004KT 9999 NCD 03/M01 Q1018 BLU
Conditions at: EHGR (GILZE-RIJEN RNLA, NL) observed 0555 UTC 18 February 2019
Temperature: 3.0°C (37°F)
Dewpoint: -1.0°C (30°F) [RH = 75%]
Pressure (altimeter): 30.06 inches Hg (1018.0 mb)
Winds: from the S (170 degrees) at 5 MPH (4 knots; 2.1 m/s)
Visibility: 6 or more miles (10+ km)
Ceiling: at least 12,000 feet AGL
Clouds: sky clear below 12,000 feet AGL
Weather: no significant weather observed at this time

METAR text: EHGR 180525Z AUTO 17004KT 9999 NCD 00/M02 Q1018 BLU
Conditions at: EHGR (GILZE-RIJEN RNLA, NL) observed 0525 UTC 18 February 2019
Temperature: 0.0°C (32°F)
Dewpoint: -2.0°C (28°F) [RH = 86%]
Pressure (altimeter): 30.06 inches Hg (1018.0 mb)
Winds: from the S (170 degrees) at 5 MPH (4 knots; 2.1 m/s)
Visibility: 6 or more miles (10+ km)
Ceiling: at least 12,000 feet AGL
Clouds: sky clear below 12,000 feet AGL
Weather: no significant weather observed at this time

METAR text: EHGR 180455Z AUTO 18002KT 9999 NCD 00/M01 Q1018 BLU
Conditions at: EHGR (GILZE-RIJEN RNLA, NL) observed 0455 UTC 18 February 2019
Temperature: 0.0°C (32°F)
Dewpoint: -1.0°C (30°F) [RH = 93%]
Pressure (altimeter): 30.06 inches Hg (1018.0 mb)
Winds: from the S (180 degrees) at 2 MPH (2 knots; 1.0 m/s)
Visibility: 6 or more miles (10+ km)
Ceiling: at least 12,000 feet AGL
Clouds: sky clear below 12,000 feet AGL
Weather: no significant weather observed at this time

METAR text: EHGR 180425Z AUTO 18003KT 9999 NCD 00/M02 Q1018 BLU
Conditions at: EHGR (GILZE-RIJEN RNLA, NL) observed 0425 UTC 18 February 2019
Temperature: 0.0°C (32°F)
Dewpoint: -2.0°C (28°F) [RH = 86%]
Pressure (altimeter): 30.06 inches Hg (1018.0 mb)
Winds: from the S (180 degrees) at 3 MPH (3 knots; 1.5 m/s)
Visibility: 6 or more miles (10+ km)
Ceiling: at least 12,000 feet AGL
Clouds: sky clear below 12,000 feet AGL
Weather: no significant weather observed at this time

METAR text: EHGR 180355Z AUTO 18003KT 9999 NCD 02/M01 Q1018 BLU
Conditions at: EHGR (GILZE-RIJEN RNLA, NL) observed 0355 UTC 18 February 2019
Temperature: 2.0°C (36°F)
Dewpoint: -1.0°C (30°F) [RH = 80%]
Pressure (altimeter): 30.06 inches Hg (1018.0 mb)
Winds: from the S (180 degrees) at 3 MPH (3 knots; 1.5 m/s)
Visibility: 6 or more miles (10+ km)
Ceiling: at least 12,000 feet AGL
Clouds: sky clear below 12,000 feet AGL
Weather: no significant weather observed at this time

METAR text: EHGR 180325Z AUTO 16003KT 9999 NCD 02/M01 Q1018 BLU
Conditions at: EHGR (GILZE-RIJEN RNLA, NL) observed 0325 UTC 18 February 2019
Temperature: 2.0°C (36°F)
Dewpoint: -1.0°C (30°F) [RH = 80%]
Pressure (altimeter): 30.06 inches Hg (1018.0 mb)
Winds: from the SSE (160 degrees) at 3 MPH (3 knots; 1.5 m/s)
Visibility: 6 or more miles (10+ km)
Ceiling: at least 12,000 feet AGL
Clouds: sky clear below 12,000 feet AGL
Weather: no significant weather observed at this time

METAR text: EHGR 180255Z AUTO 17004KT 9999 NCD 03/M01 Q1018 BLU
Conditions at: EHGR (GILZE-RIJEN RNLA, NL) observed 0255 UTC 18 February 2019
Temperature: 3.0°C (37°F)
Dewpoint: -1.0°C (30°F) [RH = 75%]
Pressure (altimeter): 30.06 inches Hg (1018.0 mb)
Winds: from the S (170 degrees) at 5 MPH (4 knots; 2.1 m/s)
Visibility: 6 or more miles (10+ km)
Ceiling: at least 12,000 feet AGL
Clouds: sky clear below 12,000 feet AGL
Weather: no significant weather observed at this time

METAR text: EHGR 180225Z AUTO 17004KT 9999 NCD 04/M00 Q1018 BLU
Conditions at: EHGR (GILZE-RIJEN RNLA, NL) observed 0225 UTC 18 February 2019
Temperature: 4.0°C (39°F)
Dewpoint: 0.0°C (32°F) [RH = 75%]
Pressure (altimeter): 30.06 inches Hg (1018.0 mb)
Winds: from the S (170 degrees) at 5 MPH (4 knots; 2.1 m/s)
Visibility: 6 or more miles (10+ km)
Ceiling: at least 12,000 feet AGL
Clouds: sky clear below 12,000 feet AGL
Weather: no significant weather observed at this time

METAR text: EHGR 180155Z AUTO 18005KT 9999 NCD 05/M00 Q1019 BLU
Conditions at: EHGR (GILZE-RIJEN RNLA, NL) observed 0155 UTC 18 February 2019
Temperature: 5.0°C (41°F)
Dewpoint: 0.0°C (32°F) [RH = 70%]
Pressure (altimeter): 30.09 inches Hg (1019.0 mb)
Winds: from the S (180 degrees) at 6 MPH (5 knots; 2.6 m/s)
Visibility: 6 or more miles (10+ km)
Ceiling: at least 12,000 feet AGL
Clouds: sky clear below 12,000 feet AGL
Weather: no significant weather observed at this time

METAR text: EHGR 180125Z AUTO 18006KT 9999 NCD 06/00 Q1019 BLU
Conditions at: EHGR (GILZE-RIJEN RNLA, NL) observed 0125 UTC 18 February 2019
Temperature: 6.0°C (43°F)
Dewpoint: 0.0°C (32°F) [RH = 65%]
Pressure (altimeter): 30.09 inches Hg (1019.0 mb)
Winds: from the S (180 degrees) at 7 MPH (6 knots; 3.1 m/s)
Visibility: 6 or more miles (10+ km)
Ceiling: at least 12,000 feet AGL
Clouds: sky clear below 12,000 feet AGL
Weather: no significant weather observed at this time

METAR text: EHGR 180055Z AUTO 18004KT 120V180 9999 NCD 05/M00 Q1019 BLU
Conditions at: EHGR (GILZE-RIJEN RNLA, NL) observed 0055 UTC 18 February 2019
Temperature: 5.0°C (41°F)
Dewpoint: 0.0°C (32°F) [RH = 70%]
Pressure (altimeter): 30.09 inches Hg (1019.0 mb)
Winds: from the S (180 degrees) at 5 MPH (4 knots; 2.1 m/s)
Visibility: 6 or more miles (10+ km)
Ceiling: at least 12,000 feet AGL
Clouds: sky clear below 12,000 feet AGL
Weather: no significant weather observed at this time

METAR text: EHGR 180025Z AUTO 19004KT 110V170 9999 NCD 06/00 Q1019 BLU
Conditions at: EHGR (GILZE-RIJEN RNLA, NL) observed 0025 UTC 18 February 2019
Temperature: 6.0°C (43°F)
Dewpoint: 0.0°C (32°F) [RH = 65%]
Pressure (altimeter): 30.09 inches Hg (1019.0 mb)
Winds: from the S (190 degrees) at 5 MPH (4 knots; 2.1 m/s)
Visibility: 6 or more miles (10+ km)
Ceiling: at least 12,000 feet AGL
Clouds: sky clear below 12,000 feet AGL
Weather: no significant weather observed at this time

METAR text: EHGR 172355Z AUTO 18006KT 130V210 9999 NCD 06/00 Q1019 BLU
Conditions at: EHGR (GILZE-RIJEN RNLA, NL) observed 2355 UTC 17 February 2019
Temperature: 6.0°C (43°F)
Dewpoint: 0.0°C (32°F) [RH = 65%]
Pressure (altimeter): 30.09 inches Hg (1019.0 mb)
Winds: from the S (180 degrees) at 7 MPH (6 knots; 3.1 m/s)
Visibility: 6 or more miles (10+ km)
Ceiling: at least 12,000 feet AGL
Clouds: sky clear below 12,000 feet AGL
Weather: no significant weather observed at this time

METAR text: EHGR 172325Z AUTO 18006KT 9999 NCD 06/00 Q1019 BLU
Conditions at: EHGR (GILZE-RIJEN RNLA, NL) observed 2325 UTC 17 February 2019
Temperature: 6.0°C (43°F)
Dewpoint: 0.0°C (32°F) [RH = 65%]
Pressure (altimeter): 30.09 inches Hg (1019.0 mb)
Winds: from the S (180 degrees) at 7 MPH (6 knots; 3.1 m/s)
Visibility: 6 or more miles (10+ km)
Ceiling: at least 12,000 feet AGL
Clouds: sky clear below 12,000 feet AGL
Weather: no significant weather observed at this time

METAR text: EHGR 172255Z AUTO 19006KT 160V220 9999 FEW370 07/00 Q1019 BLU
Conditions at: EHGR (GILZE-RIJEN RNLA, NL) observed 2255 UTC 17 February 2019
Temperature: 7.0°C (45°F)
Dewpoint: 0.0°C (32°F) [RH = 61%]
Pressure (altimeter): 30.09 inches Hg (1019.0 mb)
Winds: from the S (190 degrees) at 7 MPH (6 knots; 3.1 m/s)
Visibility: 6 or more miles (10+ km)
Ceiling: at least 12,000 feet AGL
Clouds: few clouds at 37000 feet AGL
Weather: no significant weather observed at this time

METAR text: EHGR 172225Z AUTO 19006KT 9999 NCD 07/01 Q1019 BLU
Conditions at: EHGR (GILZE-RIJEN RNLA, NL) observed 2225 UTC 17 February 2019
Temperature: 7.0°C (45°F)
Dewpoint: 1.0°C (34°F) [RH = 66%]
Pressure (altimeter): 30.09 inches Hg (1019.0 mb)
Winds: from the S (190 degrees) at 7 MPH (6 knots; 3.1 m/s)
Visibility: 6 or more miles (10+ km)
Ceiling: at least 12,000 feet AGL
Clouds: sky clear below 12,000 feet AGL
Weather: no significant weather observed at this time

METAR text: EHGR 172155Z AUTO 18007KT 150V210 9999 SCT360 05/M00 Q1019 BLU
Conditions at: EHGR (GILZE-RIJEN RNLA, NL) observed 2155 UTC 17 February 2019
Temperature: 5.0°C (41°F)
Dewpoint: 0.0°C (32°F) [RH = 70%]
Pressure (altimeter): 30.09 inches Hg (1019.0 mb)
Winds: from the S (180 degrees) at 8 MPH (7 knots; 3.6 m/s)
Visibility: 6 or more miles (10+ km)
Ceiling: at least 12,000 feet AGL
Clouds: scattered clouds at 36000 feet AGL
Weather: no significant weather observed at this time

METAR text: EHGR 172125Z AUTO 18006KT 150V210 9999 FEW350 07/00 Q1019 BLU
Conditions at: EHGR (GILZE-RIJEN RNLA, NL) observed 2125 UTC 17 February 2019
Temperature: 7.0°C (45°F)
Dewpoint: 0.0°C (32°F) [RH = 61%]
Pressure (altimeter): 30.09 inches Hg (1019.0 mb)
Winds: from the S (180 degrees) at 7 MPH (6 knots; 3.1 m/s)
Visibility: 6 or more miles (10+ km)
Ceiling: at least 12,000 feet AGL
Clouds: few clouds at 35000 feet AGL
Weather: no significant weather observed at this time

METAR text: EHGR 172055Z AUTO 18006KT 150V210 9999 OVC360 07/01 Q1019 BLU
Conditions at: EHGR (GILZE-RIJEN RNLA, NL) observed 2055 UTC 17 February 2019
Temperature: 7.0°C (45°F)
Dewpoint: 1.0°C (34°F) [RH = 66%]
Pressure (altimeter): 30.09 inches Hg (1019.0 mb)
Winds: from the S (180 degrees) at 7 MPH (6 knots; 3.1 m/s)
Visibility: 6 or more miles (10+ km)
Ceiling: 36000 feet AGL
Clouds: overcast cloud deck at 36000 feet AGL
Weather: no significant weather observed at this time

METAR text: EHGR 172025Z AUTO 17003KT 140V200 9999 OVC360 06/01 Q1019 BLU
Conditions at: EHGR (GILZE-RIJEN RNLA, NL) observed 2025 UTC 17 February 2019
Temperature: 6.0°C (43°F)
Dewpoint: 1.0°C (34°F) [RH = 70%]
Pressure (altimeter): 30.09 inches Hg (1019.0 mb)
Winds: from the S (170 degrees) at 3 MPH (3 knots; 1.5 m/s)
Visibility: 6 or more miles (10+ km)
Ceiling: 36000 feet AGL
Clouds: overcast cloud deck at 36000 feet AGL
Weather: no significant weather observed at this time

METAR text: EHGR 171955Z AUTO 18004KT 9999 OVC360 08/01 Q1018 BLU
Conditions at: EHGR (GILZE-RIJEN RNLA, NL) observed 1955 UTC 17 February 2019
Temperature: 8.0°C (46°F)
Dewpoint: 1.0°C (34°F) [RH = 61%]
Pressure (altimeter): 30.06 inches Hg (1018.0 mb)
Winds: from the S (180 degrees) at 5 MPH (4 knots; 2.1 m/s)
Visibility: 6 or more miles (10+ km)
Ceiling: 36000 feet AGL
Clouds: overcast cloud deck at 36000 feet AGL
Weather: no significant weather observed at this time

METAR text: EHGR 171925Z AUTO 17003KT 150V210 9999 OVC350 08/01 Q1018 BLU
Conditions at: EHGR (GILZE-RIJEN RNLA, NL) observed 1925 UTC 17 February 2019
Temperature: 8.0°C (46°F)
Dewpoint: 1.0°C (34°F) [RH = 61%]
Pressure (altimeter): 30.06 inches Hg (1018.0 mb)
Winds: from the S (170 degrees) at 3 MPH (3 knots; 1.5 m/s)
Visibility: 6 or more miles (10+ km)
Ceiling: 35000 feet AGL
Clouds: overcast cloud deck at 35000 feet AGL
Weather: no significant weather observed at this time

METAR text: EHGR 171855Z AUTO 18003KT 9999 OVC350 08/02 Q1018 BLU
Conditions at: EHGR (GILZE-RIJEN RNLA, NL) observed 1855 UTC 17 February 2019
Temperature: 8.0°C (46°F)
Dewpoint: 2.0°C (36°F) [RH = 66%]
Pressure (altimeter): 30.06 inches Hg (1018.0 mb)
Winds: from the S (180 degrees) at 3 MPH (3 knots; 1.5 m/s)
Visibility: 6 or more miles (10+ km)
Ceiling: 35000 feet AGL
Clouds: overcast cloud deck at 35000 feet AGL
Weather: no significant weather observed at this time

METAR text: EHGR 171825Z AUTO 19003KT 9999 BKN360 09/02 Q1018 BLU
Conditions at: EHGR (GILZE-RIJEN RNLA, NL) observed 1825 UTC 17 February 2019
Temperature: 9.0°C (48°F)
Dewpoint: 2.0°C (36°F) [RH = 61%]
Pressure (altimeter): 30.06 inches Hg (1018.0 mb)
Winds: from the S (190 degrees) at 3 MPH (3 knots; 1.5 m/s)
Visibility: 6 or more miles (10+ km)
Ceiling: 36000 feet AGL
Clouds: broken clouds at 36000 feet AGL
Weather: no significant weather observed at this time

METAR text: EHGR 171755Z AUTO 19005KT 9999 FEW360 11/03 Q1018 BLU
Conditions at: EHGR (GILZE-RIJEN RNLA, NL) observed 1755 UTC 17 February 2019
Temperature: 11.0°C (52°F)
Dewpoint: 3.0°C (37°F) [RH = 58%]
Pressure (altimeter): 30.06 inches Hg (1018.0 mb)
Winds: from the S (190 degrees) at 6 MPH (5 knots; 2.6 m/s)
Visibility: 6 or more miles (10+ km)
Ceiling: at least 12,000 feet AGL
Clouds: few clouds at 36000 feet AGL
Weather: no significant weather observed at this time

METAR text: EHGR 171725Z AUTO 18008KT 9999 SCT350 09/03 Q1018 BLU
Conditions at: EHGR (GILZE-RIJEN RNLA, NL) observed 1725 UTC 17 February 2019
Temperature: 9.0°C (48°F)
Dewpoint: 3.0°C (37°F) [RH = 66%]
Pressure (altimeter): 30.06 inches Hg (1018.0 mb)
Winds: from the S (180 degrees) at 9 MPH (8 knots; 4.1 m/s)
Visibility: 6 or more miles (10+ km)
Ceiling: at least 12,000 feet AGL
Clouds: scattered clouds at 35000 feet AGL
Weather: no significant weather observed at this time

METAR text: EHGR 171655Z AUTO 17006KT 9999 OVC300 11/03 Q1018 BLU
Conditions at: EHGR (GILZE-RIJEN RNLA, NL) observed 1655 UTC 17 February 2019
Temperature: 11.0°C (52°F)
Dewpoint: 3.0°C (37°F) [RH = 58%]
Pressure (altimeter): 30.06 inches Hg (1018.0 mb)
Winds: from the S (170 degrees) at 7 MPH (6 knots; 3.1 m/s)
Visibility: 6 or more miles (10+ km)
Ceiling: 30000 feet AGL
Clouds: overcast cloud deck at 30000 feet AGL
Weather: no significant weather observed at this time

METAR text: EHGR 171625Z AUTO 16008KT 130V190 9999 OVC290 14/03 Q1017 BLU
Conditions at: EHGR (GILZE-RIJEN RNLA, NL) observed 1625 UTC 17 February 2019
Temperature: 14.0°C (57°F)
Dewpoint: 3.0°C (37°F) [RH = 47%]
Pressure (altimeter): 30.03 inches Hg (1017.0 mb)
Winds: from the SSE (160 degrees) at 9 MPH (8 knots; 4.1 m/s)
Visibility: 6 or more miles (10+ km)
Ceiling: 29000 feet AGL
Clouds: overcast cloud deck at 29000 feet AGL
Weather: no significant weather observed at this time

METAR text: EHGR 171555Z AUTO 16006KT 9999 OVC280 15/03 Q1017 BLU
Conditions at: EHGR (GILZE-RIJEN RNLA, NL) observed 1555 UTC 17 February 2019
Temperature: 15.0°C (59°F)
Dewpoint: 3.0°C (37°F) [RH = 44%]
Pressure (altimeter): 30.03 inches Hg (1017.0 mb)
Winds: from the SSE (160 degrees) at 7 MPH (6 knots; 3.1 m/s)
Visibility: 6 or more miles (10+ km)
Ceiling: 28000 feet AGL
Clouds: overcast cloud deck at 28000 feet AGL
Weather: no significant weather observed at this time

METAR text: EHGR 171525Z AUTO 17008KT 130V190 9999 OVC290 16/03 Q1018 BLU
Conditions at: EHGR (GILZE-RIJEN RNLA, NL) observed 1525 UTC 17 February 2019
Temperature: 16.0°C (61°F)
Dewpoint: 3.0°C (37°F) [RH = 42%]
Pressure (altimeter): 30.06 inches Hg (1018.0 mb)
Winds: from the S (170 degrees) at 9 MPH (8 knots; 4.1 m/s)
Visibility: 6 or more miles (10+ km)
Ceiling: 29000 feet AGL
Clouds: overcast cloud deck at 29000 feet AGL
Weather: no significant weather observed at this time

METAR text: EHGR 171455Z AUTO 17008KT 130V190 9999 OVC290 16/03 Q1018 BLU
Conditions at: EHGR (GILZE-RIJEN RNLA, NL) observed 1455 UTC 17 February 2019
Temperature: 16.0°C (61°F)
Dewpoint: 3.0°C (37°F) [RH = 42%]
Pressure (altimeter): 30.06 inches Hg (1018.0 mb)
Winds: from the S (170 degrees) at 9 MPH (8 knots; 4.1 m/s)
Visibility: 6 or more miles (10+ km)
Ceiling: 29000 feet AGL
Clouds: overcast cloud deck at 29000 feet AGL
Weather: no significant weather observed at this time

METAR text: EHGR 171425Z AUTO 15008KT 120V180 9999 OVC290 16/03 Q1018 BLU
Conditions at: EHGR (GILZE-RIJEN RNLA, NL) observed 1425 UTC 17 February 2019
Temperature: 16.0°C (61°F)
Dewpoint: 3.0°C (37°F) [RH = 42%]
Pressure (altimeter): 30.06 inches Hg (1018.0 mb)
Winds: from the SSE (150 degrees) at 9 MPH (8 knots; 4.1 m/s)
Visibility: 6 or more miles (10+ km)
Ceiling: 29000 feet AGL
Clouds: overcast cloud deck at 29000 feet AGL
Weather: no significant weather observed at this time

METAR text: EHGR 171355Z AUTO 16007KT 9999 OVC370 16/03 Q1018 BLU
Conditions at: EHGR (GILZE-RIJEN RNLA, NL) observed 1355 UTC 17 February 2019
Temperature: 16.0°C (61°F)
Dewpoint: 3.0°C (37°F) [RH = 42%]
Pressure (altimeter): 30.06 inches Hg (1018.0 mb)
Winds: from the SSE (160 degrees) at 8 MPH (7 knots; 3.6 m/s)
Visibility: 6 or more miles (10+ km)
Ceiling: 37000 feet AGL
Clouds: overcast cloud deck at 37000 feet AGL
Weather: no significant weather observed at this time

METAR text: EHGR 171325Z AUTO 18008KT 130V190 9999 BKN340 16/03 Q1018 BLU
Conditions at: EHGR (GILZE-RIJEN RNLA, NL) observed 1325 UTC 17 February 2019
Temperature: 16.0°C (61°F)
Dewpoint: 3.0°C (37°F) [RH = 42%]
Pressure (altimeter): 30.06 inches Hg (1018.0 mb)
Winds: from the S (180 degrees) at 9 MPH (8 knots; 4.1 m/s)
Visibility: 6 or more miles (10+ km)
Ceiling: 34000 feet AGL
Clouds: broken clouds at 34000 feet AGL
Weather: no significant weather observed at this time

METAR text: EHGR 171255Z AUTO 19008KT 120V230 9999 OVC290 15/03 Q1019 BLU
Conditions at: EHGR (GILZE-RIJEN RNLA, NL) observed 1255 UTC 17 February 2019
Temperature: 15.0°C (59°F)
Dewpoint: 3.0°C (37°F) [RH = 44%]
Pressure (altimeter): 30.09 inches Hg (1019.0 mb)
Winds: from the S (190 degrees) at 9 MPH (8 knots; 4.1 m/s)
Visibility: 6 or more miles (10+ km)
Ceiling: 29000 feet AGL
Clouds: overcast cloud deck at 29000 feet AGL
Weather: no significant weather observed at this time

METAR text: EHGR 171225Z AUTO 18008KT 150V220 9999 SCT280 SCT340 15/03 Q1019 BLU
Conditions at: EHGR (GILZE-RIJEN RNLA, NL) observed 1225 UTC 17 February 2019
Temperature: 15.0°C (59°F)
Dewpoint: 3.0°C (37°F) [RH = 44%]
Pressure (altimeter): 30.09 inches Hg (1019.0 mb)
Winds: from the S (180 degrees) at 9 MPH (8 knots; 4.1 m/s)
Visibility: 6 or more miles (10+ km)
Ceiling: at least 12,000 feet AGL
Clouds: scattered clouds at 28000 feet AGL
scattered clouds at 34000 feet AGL
Weather: no significant weather observed at this time

METAR text: EHGR 171155Z AUTO 18010KT 140V200 9999 OVC280 14/04 Q1019 BLU
Conditions at: EHGR (GILZE-RIJEN RNLA, NL) observed 1155 UTC 17 February 2019
Temperature: 14.0°C (57°F)
Dewpoint: 4.0°C (39°F) [RH = 51%]
Pressure (altimeter): 30.09 inches Hg (1019.0 mb)
Winds: from the S (180 degrees) at 12 MPH (10 knots; 5.1 m/s)
Visibility: 6 or more miles (10+ km)
Ceiling: 28000 feet AGL
Clouds: overcast cloud deck at 28000 feet AGL
Weather: no significant weather observed at this time

METAR text: EHGR 171125Z AUTO 16007KT 130V190 9999 OVC300 13/04 Q1020 BLU
Conditions at: EHGR (GILZE-RIJEN RNLA, NL) observed 1125 UTC 17 February 2019
Temperature: 13.0°C (55°F)
Dewpoint: 4.0°C (39°F) [RH = 54%]
Pressure (altimeter): 30.12 inches Hg (1020.0 mb)
Winds: from the SSE (160 degrees) at 8 MPH (7 knots; 3.6 m/s)
Visibility: 6 or more miles (10+ km)
Ceiling: 30000 feet AGL
Clouds: overcast cloud deck at 30000 feet AGL
Weather: no significant weather observed at this time

METAR text: EHGR 171055Z AUTO 17008KT 120V180 9999 BKN280 BKN370 12/04 Q1020 BLU
Conditions at: EHGR (GILZE-RIJEN RNLA, NL) observed 1055 UTC 17 February 2019
Temperature: 12.0°C (54°F)
Dewpoint: 4.0°C (39°F) [RH = 58%]
Pressure (altimeter): 30.12 inches Hg (1020.0 mb)
Winds: from the S (170 degrees) at 9 MPH (8 knots; 4.1 m/s)
Visibility: 6 or more miles (10+ km)
Ceiling: 28000 feet AGL
Clouds: broken clouds at 28000 feet AGL
broken clouds at 37000 feet AGL
Weather: no significant weather observed at this time

METAR text: EHGR 171025Z AUTO 16008KT 9999 OVC260 11/03 Q1020 BLU
Conditions at: EHGR (GILZE-RIJEN RNLA, NL) observed 1025 UTC 17 February 2019
Temperature: 11.0°C (52°F)
Dewpoint: 3.0°C (37°F) [RH = 58%]
Pressure (altimeter): 30.12 inches Hg (1020.0 mb)
Winds: from the SSE (160 degrees) at 9 MPH (8 knots; 4.1 m/s)
Visibility: 6 or more miles (10+ km)
Ceiling: 26000 feet AGL
Clouds: overcast cloud deck at 26000 feet AGL
Weather: no significant weather observed at this time

METAR text: EHGR 170955Z AUTO 16007KT 120V180 9999 BKN290 10/03 Q1020 BLU
Conditions at: EHGR (GILZE-RIJEN RNLA, NL) observed 0955 UTC 17 February 2019
Temperature: 10.0°C (50°F)
Dewpoint: 3.0°C (37°F) [RH = 62%]
Pressure (altimeter): 30.12 inches Hg (1020.0 mb)
Winds: from the SSE (160 degrees) at 8 MPH (7 knots; 3.6 m/s)
Visibility: 6 or more miles (10+ km)
Ceiling: 29000 feet AGL
Clouds: broken clouds at 29000 feet AGL
Weather: no significant weather observed at this time

METAR text: EHGR 170925Z AUTO 17008KT 130V190 9999 SCT240 09/03 Q1020 BLU
Conditions at: EHGR (GILZE-RIJEN RNLA, NL) observed 0925 UTC 17 February 2019
Temperature: 9.0°C (48°F)
Dewpoint: 3.0°C (37°F) [RH = 66%]
Pressure (altimeter): 30.12 inches Hg (1020.0 mb)
Winds: from the S (170 degrees) at 9 MPH (8 knots; 4.1 m/s)
Visibility: 6 or more miles (10+ km)
Ceiling: at least 12,000 feet AGL
Clouds: scattered clouds at 24000 feet AGL
Weather: no significant weather observed at this time

METAR text: EHGR 170855Z AUTO 17006KT 9999 BKN240 07/03 Q1020 BLU
Conditions at: EHGR (GILZE-RIJEN RNLA, NL) observed 0855 UTC 17 February 2019
Temperature: 7.0°C (45°F)
Dewpoint: 3.0°C (37°F) [RH = 76%]
Pressure (altimeter): 30.12 inches Hg (1020.0 mb)
Winds: from the S (170 degrees) at 7 MPH (6 knots; 3.1 m/s)
Visibility: 6 or more miles (10+ km)
Ceiling: 24000 feet AGL
Clouds: broken clouds at 24000 feet AGL
Weather: no significant weather observed at this time

METAR text: EHGR 170825Z AUTO 16004KT 9999 OVC230 04/02 Q1021 BLU
Conditions at: EHGR (GILZE-RIJEN RNLA, NL) observed 0825 UTC 17 February 2019
Temperature: 4.0°C (39°F)
Dewpoint: 2.0°C (36°F) [RH = 87%]
Pressure (altimeter): 30.15 inches Hg (1021.0 mb)
Winds: from the SSE (160 degrees) at 5 MPH (4 knots; 2.1 m/s)
Visibility: 6 or more miles (10+ km)
Ceiling: 23000 feet AGL
Clouds: overcast cloud deck at 23000 feet AGL
Weather: no significant weather observed at this time

METAR text: EHGR 170755Z AUTO 16005KT 9999 BKN250 03/01 Q1021 BLU
Conditions at: EHGR (GILZE-RIJEN RNLA, NL) observed 0755 UTC 17 February 2019
Temperature: 3.0°C (37°F)
Dewpoint: 1.0°C (34°F) [RH = 87%]
Pressure (altimeter): 30.15 inches Hg (1021.0 mb)
Winds: from the SSE (160 degrees) at 6 MPH (5 knots; 2.6 m/s)
Visibility: 6 or more miles (10+ km)
Ceiling: 25000 feet AGL
Clouds: broken clouds at 25000 feet AGL
Weather: no significant weather observed at this time

METAR text: EHGR 170725Z AUTO 14003KT 9000 BR BKN250 OVC360 03/01 Q1021 BLU
Conditions at: EHGR (GILZE-RIJEN RNLA, NL) observed 0725 UTC 17 February 2019
Temperature: 3.0°C (37°F)
Dewpoint: 1.0°C (34°F) [RH = 87%]
Pressure (altimeter): 30.15 inches Hg (1021.0 mb)
Winds: from the SE (140 degrees) at 3 MPH (3 knots; 1.5 m/s)
Visibility: 6 miles ( 9 km)
Ceiling: 25000 feet AGL
Clouds: broken clouds at 25000 feet AGL
overcast cloud deck at 36000 feet AGL
Weather: BR  (mist)

METAR text: EHGR 170655Z AUTO 16004KT 9999 BKN250 BKN360 03/01 Q1021 BLU
Conditions at: EHGR (GILZE-RIJEN RNLA, NL) observed 0655 UTC 17 February 2019
Temperature: 3.0°C (37°F)
Dewpoint: 1.0°C (34°F) [RH = 87%]
Pressure (altimeter): 30.15 inches Hg (1021.0 mb)
Winds: from the SSE (160 degrees) at 5 MPH (4 knots; 2.1 m/s)
Visibility: 6 or more miles (10+ km)
Ceiling: 25000 feet AGL
Clouds: broken clouds at 25000 feet AGL
broken clouds at 36000 feet AGL
Weather: no significant weather observed at this time

METAR text: EHGR 170625Z AUTO 16004KT 9999 OVC230 03/01 Q1021 BLU
Conditions at: EHGR (GILZE-RIJEN RNLA, NL) observed 0625 UTC 17 February 2019
Temperature: 3.0°C (37°F)
Dewpoint: 1.0°C (34°F) [RH = 87%]
Pressure (altimeter): 30.15 inches Hg (1021.0 mb)
Winds: from the SSE (160 degrees) at 5 MPH (4 knots; 2.1 m/s)
Visibility: 6 or more miles (10+ km)
Ceiling: 23000 feet AGL
Clouds: overcast cloud deck at 23000 feet AGL
Weather: no significant weather observed at this time

METAR text: EHGR 170555Z AUTO 16004KT 9999 OVC240 03/01 Q1021 BLU
Conditions at: EHGR (GILZE-RIJEN RNLA, NL) observed 0555 UTC 17 February 2019
Temperature: 3.0°C (37°F)
Dewpoint: 1.0°C (34°F) [RH = 87%]
Pressure (altimeter): 30.15 inches Hg (1021.0 mb)
Winds: from the SSE (160 degrees) at 5 MPH (4 knots; 2.1 m/s)
Visibility: 6 or more miles (10+ km)
Ceiling: 24000 feet AGL
Clouds: overcast cloud deck at 24000 feet AGL
Weather: no significant weather observed at this time

METAR text: EHGR 170525Z AUTO 17004KT 9999 BKN240 OVC330 03/01 Q1021 BLU
Conditions at: EHGR (GILZE-RIJEN RNLA, NL) observed 0525 UTC 17 February 2019
Temperature: 3.0°C (37°F)
Dewpoint: 1.0°C (34°F) [RH = 87%]
Pressure (altimeter): 30.15 inches Hg (1021.0 mb)
Winds: from the S (170 degrees) at 5 MPH (4 knots; 2.1 m/s)
Visibility: 6 or more miles (10+ km)
Ceiling: 24000 feet AGL
Clouds: broken clouds at 24000 feet AGL
overcast cloud deck at 33000 feet AGL
Weather: no significant weather observed at this time

METAR text: EHGR 170455Z AUTO 17005KT 9999 OVC340 04/01 Q1022 BLU
Conditions at: EHGR (GILZE-RIJEN RNLA, NL) observed 0455 UTC 17 February 2019
Temperature: 4.0°C (39°F)
Dewpoint: 1.0°C (34°F) [RH = 81%]
Pressure (altimeter): 30.18 inches Hg (1022.0 mb)
Winds: from the S (170 degrees) at 6 MPH (5 knots; 2.6 m/s)
Visibility: 6 or more miles (10+ km)
Ceiling: 34000 feet AGL
Clouds: overcast cloud deck at 34000 feet AGL
Weather: no significant weather observed at this time

METAR text: EHGR 170425Z AUTO 17006KT 9999 BKN230 OVC340 03/01 Q1022 BLU
Conditions at: EHGR (GILZE-RIJEN RNLA, NL) observed 0425 UTC 17 February 2019
Temperature: 3.0°C (37°F)
Dewpoint: 1.0°C (34°F) [RH = 87%]
Pressure (altimeter): 30.18 inches Hg (1022.0 mb)
Winds: from the S (170 degrees) at 7 MPH (6 knots; 3.1 m/s)
Visibility: 6 or more miles (10+ km)
Ceiling: 23000 feet AGL
Clouds: broken clouds at 23000 feet AGL
overcast cloud deck at 34000 feet AGL
Weather: no significant weather observed at this time

METAR text: EHGR 170355Z AUTO 17005KT 9000 BR NCD 03/00 Q1022 BLU
Conditions at: EHGR (GILZE-RIJEN RNLA, NL) observed 0355 UTC 17 February 2019
Temperature: 3.0°C (37°F)
Dewpoint: 0.0°C (32°F) [RH = 81%]
Pressure (altimeter): 30.18 inches Hg (1022.0 mb)
Winds: from the S (170 degrees) at 6 MPH (5 knots; 2.6 m/s)
Visibility: 6 miles ( 9 km)
Ceiling: at least 12,000 feet AGL
Clouds: sky clear below 12,000 feet AGL
Weather: BR  (mist)

METAR text: EHGR 170341Z AUTO 16003KT 8000 BR SCT270 02/00 Q1022 BLU
Conditions at: EHGR (GILZE-RIJEN RNLA, NL) observed 0341 UTC 17 February 2019
Temperature: 2.0°C (36°F)
Dewpoint: 0.0°C (32°F) [RH = 87%]
Pressure (altimeter): 30.18 inches Hg (1022.0 mb)
Winds: from the SSE (160 degrees) at 3 MPH (3 knots; 1.5 m/s)
Visibility: 5 miles ( 8 km)
Ceiling: at least 12,000 feet AGL
Clouds: scattered clouds at 27000 feet AGL
Weather: BR  (mist)

METAR text: EHGR 170337Z AUTO 16003KT 7000 BR BKN270 02/M00 Q1022 WHT
Conditions at: EHGR (GILZE-RIJEN RNLA, NL) observed 0337 UTC 17 February 2019
Temperature: 2.0°C (36°F)
Dewpoint: 0.0°C (32°F) [RH = 87%]
Pressure (altimeter): 30.18 inches Hg (1022.0 mb)
Winds: from the SSE (160 degrees) at 3 MPH (3 knots; 1.5 m/s)
Visibility: 4 miles ( 7 km)
Ceiling: 27000 feet AGL
Clouds: broken clouds at 27000 feet AGL
Weather: BR  (mist)

METAR text: EHGR 170325Z AUTO 16004KT 9999 BKN280 OVC330 03/00 Q1022 BLU
Conditions at: EHGR (GILZE-RIJEN RNLA, NL) observed 0325 UTC 17 February 2019
Temperature: 3.0°C (37°F)
Dewpoint: 0.0°C (32°F) [RH = 81%]
Pressure (altimeter): 30.18 inches Hg (1022.0 mb)
Winds: from the SSE (160 degrees) at 5 MPH (4 knots; 2.1 m/s)
Visibility: 6 or more miles (10+ km)
Ceiling: 28000 feet AGL
Clouds: broken clouds at 28000 feet AGL
overcast cloud deck at 33000 feet AGL
Weather: no significant weather observed at this time

METAR text: EHGR 170255Z AUTO 16004KT 9999 OVC260 03/01 Q1022 BLU
Conditions at: EHGR (GILZE-RIJEN RNLA, NL) observed 0255 UTC 17 February 2019
Temperature: 3.0°C (37°F)
Dewpoint: 1.0°C (34°F) [RH = 87%]
Pressure (altimeter): 30.18 inches Hg (1022.0 mb)
Winds: from the SSE (160 degrees) at 5 MPH (4 knots; 2.1 m/s)
Visibility: 6 or more miles (10+ km)
Ceiling: 26000 feet AGL
Clouds: overcast cloud deck at 26000 feet AGL
Weather: no significant weather observed at this time

METAR text: EHGR 170225Z AUTO 16004KT 9000 BR OVC250 02/01 Q1023 BLU
Conditions at: EHGR (GILZE-RIJEN RNLA, NL) observed 0225 UTC 17 February 2019
Temperature: 2.0°C (36°F)
Dewpoint: 1.0°C (34°F) [RH = 93%]
Pressure (altimeter): 30.21 inches Hg (1023.0 mb)
Winds: from the SSE (160 degrees) at 5 MPH (4 knots; 2.1 m/s)
Visibility: 6 miles ( 9 km)
Ceiling: 25000 feet AGL
Clouds: overcast cloud deck at 25000 feet AGL
Weather: BR  (mist)

METAR text: EHGR 170220Z AUTO 16004KT 9000 BR OVC250 02/01 Q1023 BLU
Conditions at: EHGR (GILZE-RIJEN RNLA, NL) observed 0220 UTC 17 February 2019
Temperature: 2.0°C (36°F)
Dewpoint: 1.0°C (34°F) [RH = 93%]
Pressure (altimeter): 30.21 inches Hg (1023.0 mb)
Winds: from the SSE (160 degrees) at 5 MPH (4 knots; 2.1 m/s)
Visibility: 6 miles ( 9 km)
Ceiling: 25000 feet AGL
Clouds: overcast cloud deck at 25000 feet AGL
Weather: BR  (mist)

METAR text: EHGR 170207Z AUTO 16004KT 8000 BR FEW310 00/M01 Q1023 BLU
Conditions at: EHGR (GILZE-RIJEN RNLA, NL) observed 0207 UTC 17 February 2019
Temperature: 0.0°C (32°F)
Dewpoint: -1.0°C (30°F) [RH = 93%]
Pressure (altimeter): 30.21 inches Hg (1023.0 mb)
Winds: from the SSE (160 degrees) at 5 MPH (4 knots; 2.1 m/s)
Visibility: 5 miles ( 8 km)
Ceiling: at least 12,000 feet AGL
Clouds: few clouds at 31000 feet AGL
Weather: BR  (mist)

METAR text: EHGR 170155Z AUTO 16002KT 7000 BR SCT240 M00/M01 Q1023 WHT
Conditions at: EHGR (GILZE-RIJEN RNLA, NL) observed 0155 UTC 17 February 2019
Temperature: 0.0°C (32°F)
Dewpoint: -1.0°C (30°F) [RH = 93%]
Pressure (altimeter): 30.21 inches Hg (1023.0 mb)
Winds: from the SSE (160 degrees) at 2 MPH (2 knots; 1.0 m/s)
Visibility: 4 miles ( 7 km)
Ceiling: at least 12,000 feet AGL
Clouds: scattered clouds at 24000 feet AGL
Weather: BR  (mist)

METAR text: EHGR 170145Z AUTO 16002KT 8000 BR BKN240 BKN300 00/M01 Q1023 BLU
Conditions at: EHGR (GILZE-RIJEN RNLA, NL) observed 0145 UTC 17 February 2019
Temperature: 0.0°C (32°F)
Dewpoint: -1.0°C (30°F) [RH = 93%]
Pressure (altimeter): 30.21 inches Hg (1023.0 mb)
Winds: from the SSE (160 degrees) at 2 MPH (2 knots; 1.0 m/s)
Visibility: 5 miles ( 8 km)
Ceiling: 24000 feet AGL
Clouds: broken clouds at 24000 feet AGL
broken clouds at 30000 feet AGL
Weather: BR  (mist)

METAR text: EHGR 170129Z AUTO 16002KT 7000 BR FEW260 BKN330 M00/M01 Q1023 WHT
Conditions at: EHGR (GILZE-RIJEN RNLA, NL) observed 0129 UTC 17 February 2019
Temperature: 0.0°C (32°F)
Dewpoint: -1.0°C (30°F) [RH = 93%]
Pressure (altimeter): 30.21 inches Hg (1023.0 mb)
Winds: from the SSE (160 degrees) at 2 MPH (2 knots; 1.0 m/s)
Visibility: 4 miles ( 7 km)
Ceiling: 33000 feet AGL
Clouds: few clouds at 26000 feet AGL
broken clouds at 33000 feet AGL
Weather: BR  (mist)

METAR text: EHGR 170125Z AUTO VRB02KT 8000 BR BKN250 OVC330 M00/M01 Q1023 BLU
Conditions at: EHGR (GILZE-RIJEN RNLA, NL) observed 0125 UTC 17 February 2019
Temperature: 0.0°C (32°F)
Dewpoint: -1.0°C (30°F) [RH = 93%]
Pressure (altimeter): 30.21 inches Hg (1023.0 mb)
Winds: variable direction winds at 2 MPH (2 knots; 1.0 m/s)
Visibility: 5 miles ( 8 km)
Ceiling: 25000 feet AGL
Clouds: broken clouds at 25000 feet AGL
overcast cloud deck at 33000 feet AGL
Weather: BR  (mist)

METAR text: EHGR 170111Z AUTO 17003KT 080V160 8000 BR OVC230 00/M00 Q1023 BLU
Conditions at: EHGR (GILZE-RIJEN RNLA, NL) observed 0111 UTC 17 February 2019
Temperature: 0.0°C (32°F)
Dewpoint: 0.0°C (32°F) [RH = 100%]
Pressure (altimeter): 30.21 inches Hg (1023.0 mb)
Winds: from the S (170 degrees) at 3 MPH (3 knots; 1.5 m/s)
Visibility: 5 miles ( 8 km)
Ceiling: 23000 feet AGL
Clouds: overcast cloud deck at 23000 feet AGL
Weather: BR  (mist)

METAR text: EHGR 170055Z AUTO 14001KT 7000 BR OVC240 00/M01 Q1023 WHT
Conditions at: EHGR (GILZE-RIJEN RNLA, NL) observed 0055 UTC 17 February 2019
Temperature: 0.0°C (32°F)
Dewpoint: -1.0°C (30°F) [RH = 93%]
Pressure (altimeter): 30.21 inches Hg (1023.0 mb)
Winds: from the SE (140 degrees) at 1 MPH (1 knots; 0.5 m/s)
Visibility: 4 miles ( 7 km)
Ceiling: 24000 feet AGL
Clouds: overcast cloud deck at 24000 feet AGL
Weather: BR  (mist)

METAR text: EHGR 170043Z AUTO 14002KT 7000 BR FEW240 SCT340 00/M01 Q1023 WHT
Conditions at: EHGR (GILZE-RIJEN RNLA, NL) observed 0043 UTC 17 February 2019
Temperature: 0.0°C (32°F)
Dewpoint: -1.0°C (30°F) [RH = 93%]
Pressure (altimeter): 30.21 inches Hg (1023.0 mb)
Winds: from the SE (140 degrees) at 2 MPH (2 knots; 1.0 m/s)
Visibility: 4 miles ( 7 km)
Ceiling: at least 12,000 feet AGL
Clouds: few clouds at 24000 feet AGL
scattered clouds at 34000 feet AGL
Weather: BR  (mist)

METAR text: EHGR 170025Z AUTO 18003KT 9000 BR BKN230 BKN310 02/01 Q1023 BLU
Conditions at: EHGR (GILZE-RIJEN RNLA, NL) observed 0025 UTC 17 February 2019
Temperature: 2.0°C (36°F)
Dewpoint: 1.0°C (34°F) [RH = 93%]
Pressure (altimeter): 30.21 inches Hg (1023.0 mb)
Winds: from the S (180 degrees) at 3 MPH (3 knots; 1.5 m/s)
Visibility: 6 miles ( 9 km)
Ceiling: 23000 feet AGL
Clouds: broken clouds at 23000 feet AGL
broken clouds at 31000 feet AGL
Weather: BR  (mist)

METAR text: EHGR 170014Z AUTO 17002KT 8000 BR OVC230 02/01 Q1023 BLU
Conditions at: EHGR (GILZE-RIJEN RNLA, NL) observed 0014 UTC 17 February 2019
Temperature: 2.0°C (36°F)
Dewpoint: 1.0°C (34°F) [RH = 93%]
Pressure (altimeter): 30.21 inches Hg (1023.0 mb)
Winds: from the S (170 degrees) at 2 MPH (2 knots; 1.0 m/s)
Visibility: 5 miles ( 8 km)
Ceiling: 23000 feet AGL
Clouds: overcast cloud deck at 23000 feet AGL
Weather: BR  (mist)

METAR text: EHGR 170001Z AUTO 15002KT 8000 BR OVC230 01/M00 Q1023 BLU
Conditions at: EHGR (GILZE-RIJEN RNLA, NL) observed 0001 UTC 17 February 2019
Temperature: 1.0°C (34°F)
Dewpoint: 0.0°C (32°F) [RH = 93%]
Pressure (altimeter): 30.21 inches Hg (1023.0 mb)
Winds: from the SSE (150 degrees) at 2 MPH (2 knots; 1.0 m/s)
Visibility: 5 miles ( 8 km)
Ceiling: 23000 feet AGL
Clouds: overcast cloud deck at 23000 feet AGL
Weather: BR  (mist)

METAR text: EHGR 162359Z AUTO 15002KT 7000 BR OVC230 01/00 Q1023 WHT
Conditions at: EHGR (GILZE-RIJEN RNLA, NL) observed 2359 UTC 16 February 2019
Temperature: 1.0°C (34°F)
Dewpoint: 0.0°C (32°F) [RH = 93%]
Pressure (altimeter): 30.21 inches Hg (1023.0 mb)
Winds: from the SSE (150 degrees) at 2 MPH (2 knots; 1.0 m/s)
Visibility: 4 miles ( 7 km)
Ceiling: 23000 feet AGL
Clouds: overcast cloud deck at 23000 feet AGL
Weather: BR  (mist)

METAR text: EHGR 162355Z AUTO 15002KT 9000 BR OVC230 01/00 Q1024 BLU
Conditions at: EHGR (GILZE-RIJEN RNLA, NL) observed 2355 UTC 16 February 2019
Temperature: 1.0°C (34°F)
Dewpoint: 0.0°C (32°F) [RH = 93%]
Pressure (altimeter): 30.24 inches Hg (1024.0 mb)
Winds: from the SSE (150 degrees) at 2 MPH (2 knots; 1.0 m/s)
Visibility: 6 miles ( 9 km)
Ceiling: 23000 feet AGL
Clouds: overcast cloud deck at 23000 feet AGL
Weather: BR  (mist)

METAR text: EHGR 162339Z AUTO 16004KT 9000 BR SCT240 OVC310 02/01 Q1024 BLU
Conditions at: EHGR (GILZE-RIJEN RNLA, NL) observed 2339 UTC 16 February 2019
Temperature: 2.0°C (36°F)
Dewpoint: 1.0°C (34°F) [RH = 93%]
Pressure (altimeter): 30.24 inches Hg (1024.0 mb)
Winds: from the SSE (160 degrees) at 5 MPH (4 knots; 2.1 m/s)
Visibility: 6 miles ( 9 km)
Ceiling: 31000 feet AGL
Clouds: scattered clouds at 24000 feet AGL
overcast cloud deck at 31000 feet AGL
Weather: BR  (mist)

METAR text: EHGR 162325Z AUTO 16002KT 8000 BR OVC350 01/00 Q1024 BLU
Conditions at: EHGR (GILZE-RIJEN RNLA, NL) observed 2325 UTC 16 February 2019
Temperature: 1.0°C (34°F)
Dewpoint: 0.0°C (32°F) [RH = 93%]
Pressure (altimeter): 30.24 inches Hg (1024.0 mb)
Winds: from the SSE (160 degrees) at 2 MPH (2 knots; 1.0 m/s)
Visibility: 5 miles ( 8 km)
Ceiling: 35000 feet AGL
Clouds: overcast cloud deck at 35000 feet AGL
Weather: BR  (mist)

METAR text: EHGR 162318Z AUTO 16002KT 8000 BR OVC320 01/00 Q1024 BLU
Conditions at: EHGR (GILZE-RIJEN RNLA, NL) observed 2318 UTC 16 February 2019
Temperature: 1.0°C (34°F)
Dewpoint: 0.0°C (32°F) [RH = 93%]
Pressure (altimeter): 30.24 inches Hg (1024.0 mb)
Winds: from the SSE (160 degrees) at 2 MPH (2 knots; 1.0 m/s)
Visibility: 5 miles ( 8 km)
Ceiling: 32000 feet AGL
Clouds: overcast cloud deck at 32000 feet AGL
Weather: BR  (mist)

METAR text: EHGR 162314Z AUTO 17002KT 7000 BR OVC320 02/00 Q1024 WHT
Conditions at: EHGR (GILZE-RIJEN RNLA, NL) observed 2314 UTC 16 February 2019
Temperature: 2.0°C (36°F)
Dewpoint: 0.0°C (32°F) [RH = 87%]
Pressure (altimeter): 30.24 inches Hg (1024.0 mb)
Winds: from the S (170 degrees) at 2 MPH (2 knots; 1.0 m/s)
Visibility: 4 miles ( 7 km)
Ceiling: 32000 feet AGL
Clouds: overcast cloud deck at 32000 feet AGL
Weather: BR  (mist)

METAR text: EHGR 162255Z AUTO 17004KT 9999 OVC300 03/01 Q1024 BLU
Conditions at: EHGR (GILZE-RIJEN RNLA, NL) observed 2255 UTC 16 February 2019
Temperature: 3.0°C (37°F)
Dewpoint: 1.0°C (34°F) [RH = 87%]
Pressure (altimeter): 30.24 inches Hg (1024.0 mb)
Winds: from the S (170 degrees) at 5 MPH (4 knots; 2.1 m/s)
Visibility: 6 or more miles (10+ km)
Ceiling: 30000 feet AGL
Clouds: overcast cloud deck at 30000 feet AGL
Weather: no significant weather observed at this time

METAR text: EHGR 162225Z AUTO 18003KT 090V160 9999 BKN320 04/02 Q1024 BLU
Conditions at: EHGR (GILZE-RIJEN RNLA, NL) observed 2225 UTC 16 February 2019
Temperature: 4.0°C (39°F)
Dewpoint: 2.0°C (36°F) [RH = 87%]
Pressure (altimeter): 30.24 inches Hg (1024.0 mb)
Winds: from the S (180 degrees) at 3 MPH (3 knots; 1.5 m/s)
Visibility: 6 or more miles (10+ km)
Ceiling: 32000 feet AGL
Clouds: broken clouds at 32000 feet AGL
Weather: no significant weather observed at this time

METAR text: EHGR 162155Z AUTO 18005KT 060V170 8000 BR OVC290 02/02 Q1024 BLU
Conditions at: EHGR (GILZE-RIJEN RNLA, NL) observed 2155 UTC 16 February 2019
Temperature: 2.0°C (36°F)
Dewpoint: 2.0°C (36°F) [RH = 100%]
Pressure (altimeter): 30.24 inches Hg (1024.0 mb)
Winds: from the S (180 degrees) at 6 MPH (5 knots; 2.6 m/s)
Visibility: 5 miles ( 8 km)
Ceiling: 29000 feet AGL
Clouds: overcast cloud deck at 29000 feet AGL
Weather: BR  (mist)

METAR text: EHGR 162144Z AUTO 19004KT 130V190 8000 BR OVC290 02/01 Q1024 BLU
Conditions at: EHGR (GILZE-RIJEN RNLA, NL) observed 2144 UTC 16 February 2019
Temperature: 2.0°C (36°F)
Dewpoint: 1.0°C (34°F) [RH = 93%]
Pressure (altimeter): 30.24 inches Hg (1024.0 mb)
Winds: from the S (190 degrees) at 5 MPH (4 knots; 2.1 m/s)
Visibility: 5 miles ( 8 km)
Ceiling: 29000 feet AGL
Clouds: overcast cloud deck at 29000 feet AGL
Weather: BR  (mist)

METAR text: EHGR 162130Z AUTO 20001KT 7000 BR OVC300 02/02 Q1024 WHT
Conditions at: EHGR (GILZE-RIJEN RNLA, NL) observed 2130 UTC 16 February 2019
Temperature: 2.0°C (36°F)
Dewpoint: 2.0°C (36°F) [RH = 100%]
Pressure (altimeter): 30.24 inches Hg (1024.0 mb)
Winds: from the SSW (200 degrees) at 1 MPH (1 knots; 0.5 m/s)
Visibility: 4 miles ( 7 km)
Ceiling: 30000 feet AGL
Clouds: overcast cloud deck at 30000 feet AGL
Weather: BR  (mist)

METAR text: EHGR 162125Z AUTO 07001KT 9000 BR OVC300 02/01 Q1024 BLU
Conditions at: EHGR (GILZE-RIJEN RNLA, NL) observed 2125 UTC 16 February 2019
Temperature: 2.0°C (36°F)
Dewpoint: 1.0°C (34°F) [RH = 93%]
Pressure (altimeter): 30.24 inches Hg (1024.0 mb)
Winds: from the ENE (70 degrees) at 1 MPH (1 knots; 0.5 m/s)
Visibility: 6 miles ( 9 km)
Ceiling: 30000 feet AGL
Clouds: overcast cloud deck at 30000 feet AGL
Weather: BR  (mist)

METAR text: EHGR 162055Z AUTO 08001KT 9000 BR OVC310 03/02 Q1024 BLU
Conditions at: EHGR (GILZE-RIJEN RNLA, NL) observed 2055 UTC 16 February 2019
Temperature: 3.0°C (37°F)
Dewpoint: 2.0°C (36°F) [RH = 93%]
Pressure (altimeter): 30.24 inches Hg (1024.0 mb)
Winds: from the E (80 degrees) at 1 MPH (1 knots; 0.5 m/s)
Visibility: 6 miles ( 9 km)
Ceiling: 31000 feet AGL
Clouds: overcast cloud deck at 31000 feet AGL
Weather: BR  (mist)

METAR text: EHGR 162025Z AUTO 18003KT 9999 OVC300 04/02 Q1024 BLU
Conditions at: EHGR (GILZE-RIJEN RNLA, NL) observed 2025 UTC 16 February 2019
Temperature: 4.0°C (39°F)
Dewpoint: 2.0°C (36°F) [RH = 87%]
Pressure (altimeter): 30.24 inches Hg (1024.0 mb)
Winds: from the S (180 degrees) at 3 MPH (3 knots; 1.5 m/s)
Visibility: 6 or more miles (10+ km)
Ceiling: 30000 feet AGL
Clouds: overcast cloud deck at 30000 feet AGL
Weather: no significant weather observed at this time

Forecast for: EHGR (GILZE-RIJEN RNLA, NL)
Text: TAF EHGR 180505Z 1806/1818 18006KT CAVOK
Forecast period: 0600 to 1800 UTC 18 February 2019
Forecast type: FROM: standard forecast or significant change
Winds: from the S (180 degrees) at 7 MPH (6 knots; 3.1 m/s)
Visibility: 6 or more miles 10+ km)
Ceiling: unknown
Clouds: missing
Weather: NSW  (no significant weather)